Terminal Aerodrome Forecast
Issued by NWS

Home | Current Version | Previous Version | Text Only | Print | Product List | Glossary On
Versions: 1 2 3 4 5 6 7 8 9 10 11 12 13 14
000
FTUS44 KLIX 240520
TAFHUM
TAF
KHUM 240520Z 2406/2506 16004KT P6SM SCT035
     FM241600 08006KT P6SM SCT030 BKN100 PROB30 2416/2420 4SM TSRA
      BKN030CB
     FM242000 11007KT P6SM SCT030 BKN100
      TEMPO 2420/2424 4SM TSRA BKN025CB=

USA.gov is the U.S. government's official web portal to all federal, state and local government web resources and services.